• Join FlightAware (Why Join?)
  • Login
  • US Flag GB Flag 
03:35 EDT


 

Airport Tracker/Info


-or-


 

Live Flight TrackerFlight Track Log ✈ N789EX ✈ 25-Oct-2013 ✈ KBFI - KMWH

Flight Track Log - Related Links

Times and Time Zones

All times are in EDT time to prevent confusion due to time zone crossing. See the N789EX flight status page for this flight to view local times or setup timezone preferences in your user account.

Time Position Orientation Groundspeed Altitude Reporting Facility
EDT Latitude Longitude Course Direction KTS MPH feet Rate Location/Type
12:16 47.4810 -122.2550 144° Southeast 233 268 2,400  Level FlightAware
12:16 47.4520 -122.2140 136° Southeast 244 281 4,800 2,280 Climbing FlightAware
12:17 47.4820 -122.1190 65° Northeast 269 310 5,900 1,380 Climbing FlightAware
12:18 47.5040 -122.0710 56° Northeast 276 318 6,900 2,340 Climbing FlightAware
12:18 47.5270 -122.0360 46° Northeast 280 322 8,100 2,880 Climbing FlightAware
12:19 47.5810 -122.0300 North 287 330 10,200 3,060 Climbing FlightAware
12:20 47.6280 -122.0290 North 288 331 12,200 3,180 Climbing FlightAware
12:20 47.6880 -122.0350 356° North 306 352 14,400 3,000 Climbing FlightAware
12:21 47.7450 -122.0460 353° North 320 368 16,300 2,640 Climbing FlightAware
12:22 47.7930 -122.0560 352° North 328 377 17,700 2,520 Climbing FlightAware
12:22 47.8620 -122.0700 352° North 335 386 19,700 2,400 Climbing FlightAware
12:23 47.9390 -122.0340 17° North 357 411 21,700 1,260 Climbing FlightAware
12:24 47.9770 -121.9130 65° Northeast 370 426 22,000 180 Climbing FlightAware
12:25 48.0150 -121.7850 66° East 370 426 22,100  Climbing FlightAware
12:25 48.0270 -121.7120 76° East 367 422 22,000 -120 Descending FlightAware
12:26 48.0360 -121.6120 82° East 365 420 22,000  Level FlightAware
12:27 48.0440 -121.5220 82° East 362 417 22,000 -120 Level FlightAware
12:28 48.0510 -121.4080 85° East 359 413 21,900 -120 Descending FlightAware
12:28 48.0520 -121.3180 89° East 357 411 21,900 60 Level FlightAware
12:29 48.0530 -121.2350 89° East 357 411 22,000 60 Climbing FlightAware
12:29 48.0520 -121.1130 91° East 377 434 22,000  Level FlightAware
12:30 48.0510 -121.0130 91° East 378 435 22,000 -120 Level FlightAware
12:31 48.0510 -120.9350 90° East 378 435 21,900 -120 Descending FlightAware
12:31 48.0530 -120.7980 89° East 377 434 21,900  Level FlightAware
12:32 48.0540 -120.7330 89° East 375 432 21,900 60 Level FlightAware
12:33 48.0470 -120.6150 95° East 376 433 22,000 60 Climbing FlightAware
12:34 48.0380 -120.4570 95° East 398 458 22,100  Climbing FlightAware
12:34 48.0320 -120.3310 94° East 406 467 22,000  Descending FlightAware
12:35 48.0280 -120.1880 92° East 407 468 22,100 60 Climbing FlightAware
12:36 48.0260 -120.0890 92° East 407 468 22,100  Level FlightAware
12:36 48.0250 -119.9850 91° East 407 468 22,100 -120 Level FlightAware
12:37 48.0230 -119.8880 92° East 411 473 22,000 -120 Descending FlightAware
12:38 48.0190 -119.7890 93° East 411 473 22,000  Level FlightAware
12:39 48.0150 -119.6730 93° East 411 473 22,000  Level FlightAware
12:39 48.0110 -119.5520 93° East 411 473 22,000  Level FlightAware
12:40 48.0080 -119.4650 93° East 411 473 22,000  Level FlightAware
12:41 48.0040 -119.3500 93° East 411 473 22,000  Level FlightAware
12:41 48.0030 -119.3210 93° East 411 473 22,000  Level FlightAware
12:42 47.9789 -119.0556 93° East 443 510 22,000  Level Seattle Center
12:43 47.9664 -118.8642 96° East 459 528 22,000 -60 Level Seattle Center
12:44 47.9594 -118.6714 93° East 465 535 21,900 -60 Descending Seattle Center
12:45 47.9439 -118.4825 97° East 462 532 21,900  Level Seattle Center
12:46 47.9292 -118.2847 96° East 472 543 22,000 -120 Climbing Seattle Center
12:47 47.9153 -118.0811 96° East 488 562 21,700  Descending Seattle Center
12:48 47.9064 -117.8797 94° East 489 563 22,000 120 Climbing Seattle Center
12:49 47.8986 -117.6786 93° East 488 562 22,000 -180 Level Seattle Center
12:50 47.8981 -117.4361 90° East 486 559 21,700  Descending Seattle Center
12:51 47.8917 -117.2358 93° East 486 559 22,000 120 Climbing Seattle Center
12:52 47.8361 -117.0617 115° Southeast 473 544 22,000 -60 Level Seattle Center
12:53 47.7122 -117.0669 182° South 471 542 21,900 -60 Descending Seattle Center
12:54 47.6800 -117.2458 255° West 484 557 21,900  Level Seattle Center
12:55 47.7100 -117.4431 283° West 495 570 22,000  Climbing Seattle Center
12:56 47.7358 -117.6439 281° West 497 572 22,000  Level Seattle Center
12:57 47.7564 -117.8231 280° West 450 518 22,100 -60 Climbing Seattle Center
12:58 47.7778 -117.9753 282° West 386 444 21,900 -120 Descending Seattle Center
12:59 47.8153 -118.1231 291° West 382 440 21,900  Level Seattle Center
13:00 47.8467 -118.2917 286° West 412 474 22,000  Climbing Seattle Center
13:01 47.8767 -118.5325 281° West 486 559 22,000 -60 Level Seattle Center
13:02 47.8950 -118.7322 278° West 492 566 21,900  Descending Seattle Center
13:03 47.9039 -118.8986 275° West 412 474 22,100  Climbing Seattle Center
13:04 47.9122 -119.0550 275° West 383 441 21,900 -60 Descending Seattle Center
13:09 47.9500 -119.9490 275° West 351 404 22,000  Climbing FlightAware
13:10 47.9580 -120.0260 279° West 344 396 22,000 -300 Level FlightAware
13:10 47.9670 -120.1170 278° West 339 390 21,700 -1,020 Descending FlightAware
13:11 47.9740 -120.1800 279° West 338 389 20,900 -2,160 Descending FlightAware
13:11 47.9660 -120.2400 259° West 318 366 19,700 -2,400 Descending FlightAware
13:12 47.9300 -120.2670 207° Southwest 312 359 18,300 -780 Descending FlightAware
13:13 47.8390 -120.3010 194° South 312 359 18,300  Level FlightAware
13:14 47.7960 -120.3170 194° South 312 359 18,300  Level FlightAware
13:14 47.7520 -120.3340 195° South 312 359 18,300  Level FlightAware
13:15 47.6950 -120.3550 194° South 312 359 18,300  Level FlightAware
13:16 47.6530 -120.3700 194° South 312 359 18,300 -6,420 Level FlightAware
13:16 47.6536 -119.9003 194° South 256 295 9,900 -5,700 Descending Seattle Center
13:17 47.6067 -119.8267 133° Southeast 247 284 8,400 -1,440 Descending Seattle Center
13:18 47.5569 -119.7569 137° Southeast 247 284 7,000 -1,140 Descending Seattle Center
13:19 47.5114 -119.6878 134° Southeast 237 273 6,200 -840 Descending Seattle Center
13:20 47.4608 -119.6144 136° Southeast 235 270 5,400 -780 Descending Seattle Center
13:21 47.4147 -119.5492 136° Southeast 232 267 4,700 -720 Descending Seattle Center
13:23 47.3708 -119.4839 135° Southeast 225 259 4,000 -720 Descending Seattle Center
13:24 47.3269 -119.4197 135° Southeast 223 257 3,300 -780 Descending Seattle Center
13:25 47.2850 -119.3683 140° Southeast 194 223 2,500 -840 Descending Seattle Center
13:26 47.2428 -119.3336 151° Southeast 163 188 1,600 -660 Descending Seattle Center
13:27 47.2039 -119.3158 163° South 156 180 1,200 300 Descending Seattle Center
13:28 47.2031 -119.2697 92° East 165 190 2,300 540 Climbing Seattle Center
13:29 47.2475 -119.2589 North 164 189 2,400 180 Climbing Seattle Center
13:30 47.2922 -119.2656 354° North 176 203 2,700 -120 Climbing Seattle Center
13:31 47.2769 -119.3250 249° West 161 185 2,200 -540 Descending Seattle Center
13:32 47.2325 -119.3303 185° South 166 191 1,600 -240 Descending Seattle Center
13:33 47.1897 -119.3069 160° South 163 188 1,800 240 Climbing Seattle Center
13:34 47.2119 -119.2608 55° Northeast 164 189 2,200 180 Climbing Seattle Center
13:35 47.2589 -119.2833 342° North 167 192 2,200 -300 Level Seattle Center
13:36 47.2511 -119.3336 257° West 167 192 1,700 -540 Descending Seattle Center
13:37 47.2092 -119.3186 166° South 158 182 1,200 -540 Descending Seattle Center